Cleveland, OH

2:39 AM EDT on April 27, 2015 (GMT -0400)
APRSWXNET | | Change Station
CLOSE
Current Station
Personal Weather Station
Location: Cleveland, OH
Elevation: 690 ft
Nearby Weather Stations

Elev 690 ft 41.47 °N, 81.65 °W | Updated 38 minutes ago

Partly Cloudy
Partly Cloudy
40 °F
Feels Like 40 °F
N
0
Wind Variable Wind from WNW
Gusts 0.0 mph

Today
High -- | Low -- °F
--% Chance of Precip.
Yesterday
High -- | Low -- °F
Precip. -- in
6:29 AM 8:19 PM
Waxing Gibbous, 62% visible
Pressure 29.90 in
Visibility 10.0 miles
Clouds Few 5000 ft
Windchill 40 °F
Dew Point 31 °F
Humidity 70%
Rainfall in
Snow Depth Not available.
UV 0 out of 12
Pollen 8.90 out of 12
Air Quality Not available.
Flu Activity Regional
METAR KBKL 270553Z 32010KT 10SM FEW050 05/01 A2989 RMK AO2 SLP123 T00500011 10078 20050 58001

More Conditions Fewer Conditions

Pressure 29.90 in
Visibility 10.0 miles
Clouds Few 5000 ft
Windchill 40 °F
Dew Point 31 °F
Humidity 70%
Rainfall in
Snow Depth Not available.
UV 0 out of 12
Pollen 8.90 out of 12
Air Quality Not available.
Flu Activity Regional
METAR KBKL 270553Z 32010KT 10SM FEW050 05/01 A2989 RMK AO2 SLP123 T00500011 10078 20050 58001

More Conditions Fewer Conditions

10-Day Weather Forecast

Almanac

Astronomy

Apr. 27, 2015 Rise Set
Actual Time
Civil Twilight
Nautical Twilight
Astronomical Twilight
Moon
Length of Visible Light
Length of Day
Tomorrow will be .
, % of the Moon is Illuminated

Today's Extremes

State Highs State Lows

Community

WunderPhotos

Upload Photos

1,817,268 photos uploaded!

WunderBlogs® & News

Nearby

Air Quality

  Air Quality AQ Index Pollutant
Not available.

Snow Depth

Station Depth Elevation

Earthquake Activity

City Distance Mag. Time & Date
Minimum magnitude displayed is 2.5.

Coastal Water Temperatures

Place Temperature

Stations

Nearby Weather Stations

Station Location Temp. Windchill Dew Point Humidity Wind Precip. Elev Updated Type